createdAt,value
2019-02-12T00:00:10.929Z,23.57
2019-02-12T00:02:39.864Z,20.23
2019-02-12T00:05:09.070Z,28.27
2019-02-12T00:07:38.751Z,15.17
2019-02-12T00:10:08.499Z,22.37
2019-02-12T00:12:37.243Z,19.73
2019-02-12T00:15:06.302Z,23.92
2019-02-12T00:17:34.819Z,20.67
2019-02-12T00:20:04.444Z,23.10
2019-02-12T00:22:34.189Z,29.03
2019-02-12T00:25:02.807Z,19.48
2019-02-12T00:27:31.414Z,18.03
2019-02-12T00:30:00.425Z,23.62
2019-02-12T00:32:29.081Z,24.17
2019-02-12T00:34:57.856Z,27.80
2019-02-12T00:37:26.718Z,18.05
2019-02-12T00:39:58.320Z,28.20
2019-02-12T00:42:26.973Z,20.62
2019-02-12T00:44:55.650Z,20.67
2019-02-12T00:47:24.241Z,25.80
2019-02-12T00:49:52.887Z,37.93
2019-02-12T00:52:27.211Z,26.93
2019-02-12T00:54:55.741Z,22.97
2019-02-12T00:57:25.087Z,28.65
2019-02-12T00:59:55.058Z,26.63
2019-02-12T01:02:23.943Z,24.77
2019-02-12T01:04:53.610Z,23.52
2019-02-12T01:07:22.186Z,25.30
2019-02-12T01:09:50.685Z,37.30
2019-02-12T01:12:19.151Z,22.70
2019-02-12T01:14:47.641Z,24.63
2019-02-12T01:17:16.368Z,23.80
2019-02-12T01:19:45.736Z,27.73
2019-02-12T01:22:34.722Z,17.80
2019-02-12T01:25:03.279Z,20.87
2019-02-12T01:27:31.855Z,24.40
2019-02-12T01:30:00.423Z,19.40
2019-02-12T01:32:28.965Z,26.57
2019-02-12T01:34:57.311Z,23.35
2019-02-12T01:37:25.782Z,24.27
2019-02-12T01:39:54.264Z,28.47
2019-02-12T01:42:23.721Z,24.50
2019-02-12T01:44:52.289Z,20.33
2019-02-12T01:47:20.915Z,20.23
2019-02-12T01:49:49.533Z,22.35
2019-02-12T01:52:18.050Z,21.02
2019-02-12T01:57:23.859Z,20.93
2019-02-12T01:59:52.268Z,20.05
2019-02-12T02:02:20.780Z,28.83
2019-02-12T02:04:49.182Z,19.63
2019-02-12T02:07:17.622Z,25.80
2019-02-12T02:09:46.018Z,25.73
2019-02-12T02:12:14.517Z,28.30
2019-02-12T02:14:42.889Z,19.52
2019-02-12T02:17:11.136Z,32.93
2019-02-12T02:19:39.811Z,28.37
2019-02-12T02:22:08.276Z,19.03
2019-02-12T02:24:37.478Z,29.23
2019-02-12T02:27:05.897Z,22.67
2019-02-12T02:29:34.261Z,21.47
2019-02-12T02:32:03.737Z,33.07
2019-02-12T02:34:32.194Z,18.77
2019-02-12T02:37:00.715Z,25.93
2019-02-12T02:39:29.131Z,26.67
2019-02-12T02:41:59.444Z,16.70
2019-02-12T02:44:27.996Z,29.00
2019-02-12T02:46:56.508Z,28.80
2019-02-12T02:49:24.971Z,26.10
2019-02-12T02:51:54.143Z,29.33
2019-02-12T02:54:22.851Z,23.13
2019-02-12T02:56:54.162Z,25.17
2019-02-12T02:59:22.773Z,25.80
2019-02-12T03:02:15.234Z,26.70
2019-02-12T03:04:44.170Z,28.33
2019-02-12T03:07:13.401Z,25.73
2019-02-12T03:09:41.847Z,29.30
2019-02-12T03:12:10.282Z,33.20
2019-02-12T03:14:38.651Z,32.43
2019-02-12T03:17:07.118Z,31.43
2019-02-12T03:19:35.517Z,28.07
2019-02-12T03:22:04.329Z,36.93
2019-02-12T03:24:34.010Z,31.10
2019-02-12T03:27:02.510Z,28.60
2019-02-12T03:29:31.788Z,24.80
2019-02-12T03:32:00.225Z,30.70
2019-02-12T03:34:28.656Z,26.80
2019-02-12T03:36:57.076Z,26.27
2019-02-12T03:39:25.595Z,26.97
2019-02-12T03:41:54.006Z,25.20
2019-02-12T03:44:22.774Z,23.23
2019-02-12T03:46:51.495Z,21.27
2019-02-12T03:49:19.928Z,22.93
2019-02-12T03:51:48.589Z,30.40
2019-02-12T03:54:17.348Z,28.00
2019-02-12T03:56:45.690Z,31.30
2019-02-12T03:59:14.879Z,21.95
2019-02-12T04:01:43.616Z,26.23
2019-02-12T04:04:12.176Z,29.20
2019-02-12T04:06:42.252Z,27.33
2019-02-12T04:09:17.330Z,23.40
2019-02-12T04:11:48.556Z,22.90
2019-02-12T04:14:17.155Z,19.77
2019-02-12T04:16:47.544Z,19.17
2019-02-12T04:19:17.910Z,17.40
2019-02-12T04:21:46.578Z,27.70
2019-02-12T04:24:15.245Z,27.57
2019-02-12T04:26:43.957Z,22.93
2019-02-12T04:29:15.306Z,35.17
2019-02-12T04:31:44.087Z,20.27
2019-02-12T04:34:12.851Z,23.00
2019-02-12T04:36:41.469Z,28.83
2019-02-12T04:39:10.166Z,31.97
2019-02-12T04:41:39.112Z,27.47
2019-02-12T04:44:08.299Z,31.87
2019-02-12T04:46:38.565Z,35.67
2019-02-12T04:49:07.230Z,22.15
2019-02-12T04:51:36.334Z,25.03
2019-02-12T04:54:07.560Z,21.20
2019-02-12T04:56:37.061Z,23.77
2019-02-12T04:59:06.565Z,26.82
2019-02-12T05:01:34.817Z,29.60
2019-02-12T05:04:03.234Z,28.63
2019-02-12T05:06:34.032Z,31.10
2019-02-12T05:09:08.305Z,28.60
2019-02-12T05:11:36.763Z,25.77
2019-02-12T05:14:06.001Z,26.27
2019-02-12T05:16:34.339Z,32.13
2019-02-12T05:19:05.820Z,30.63
2019-02-12T05:21:36.861Z,25.27
2019-02-12T05:24:05.393Z,33.20
2019-02-12T05:26:34.051Z,26.90
2019-02-12T05:29:02.678Z,33.93
2019-02-12T05:31:32.191Z,22.53
2019-02-12T05:34:02.132Z,29.70
2019-02-12T05:36:30.704Z,25.85
2019-02-12T05:38:59.165Z,23.00
2019-02-12T05:41:33.518Z,27.83
2019-02-12T05:44:02.140Z,31.17
2019-02-12T05:46:30.991Z,26.87
2019-02-12T05:48:59.420Z,27.48
2019-02-12T05:51:31.377Z,27.27
2019-02-12T05:54:00.728Z,29.87
2019-02-12T05:56:31.317Z,31.00
2019-02-12T05:59:01.930Z,31.30
2019-02-12T06:01:30.518Z,35.03
2019-02-12T06:04:00.892Z,40.08
2019-02-12T06:06:30.174Z,57.97
2019-02-12T06:08:58.936Z,60.20
2019-02-12T06:11:27.651Z,68.60
2019-02-12T06:13:57.488Z,64.23
2019-02-12T06:16:38.083Z,77.90
2019-02-12T06:19:07.046Z,65.07
2019-02-12T06:21:35.677Z,57.70
2019-02-12T06:24:04.386Z,58.60
2019-02-12T06:26:35.468Z,52.07
2019-02-12T06:29:05.391Z,52.93
2019-02-12T06:31:34.120Z,46.77
2019-02-12T06:34:05.229Z,39.42
2019-02-12T06:36:34.001Z,47.63
2019-02-12T06:39:02.653Z,39.40
2019-02-12T06:41:31.428Z,36.13
2019-02-12T06:44:00.735Z,30.90
2019-02-12T06:46:30.072Z,25.23
2019-02-12T06:48:58.708Z,31.50
2019-02-12T06:51:30.084Z,27.13
2019-02-12T06:53:58.742Z,25.40
2019-02-12T06:56:28.117Z,30.50
2019-02-12T06:58:57.420Z,25.77
2019-02-12T07:01:27.173Z,34.23
2019-02-12T07:04:00.043Z,29.45
2019-02-12T07:06:34.258Z,36.80
2019-02-12T07:09:07.190Z,27.67
2019-02-12T07:11:38.146Z,29.47
2019-02-12T07:14:25.551Z,23.07
2019-02-12T07:17:03.187Z,34.08
2019-02-12T07:19:42.197Z,42.50
2019-02-12T07:22:14.627Z,49.80
2019-02-12T07:25:01.872Z,46.43
2019-02-12T07:27:33.147Z,36.80
2019-02-12T07:30:06.151Z,43.68
2019-02-12T07:32:51.433Z,32.50
2019-02-12T07:35:39.388Z,47.33
2019-02-12T07:38:12.679Z,41.30
2019-02-12T07:40:42.883Z,26.53
2019-02-12T07:43:15.724Z,37.33
2019-02-12T07:45:47.966Z,31.95
2019-02-12T07:48:32.404Z,33.87
2019-02-12T07:51:18.675Z,28.23
2019-02-12T07:53:53.966Z,31.47
2019-02-12T07:56:30.303Z,25.13
2019-02-12T07:59:01.575Z,20.63
2019-02-12T08:01:32.259Z,21.12
2019-02-12T08:04:02.419Z,27.47
2019-02-12T08:06:44.473Z,26.57
2019-02-12T08:09:30.908Z,20.17
2019-02-12T08:12:13.312Z,20.97
2019-02-12T08:14:44.572Z,24.55
2019-02-12T08:17:16.291Z,21.27
2019-02-12T08:20:07.811Z,23.17
2019-02-12T08:22:47.591Z,22.00
2019-02-12T08:25:23.776Z,24.47
2019-02-12T08:28:00.098Z,31.90
2019-02-12T08:30:47.432Z,22.73
2019-02-12T08:33:23.461Z,17.70
2019-02-12T08:36:06.777Z,18.73
2019-02-12T08:38:40.008Z,21.80
2019-02-12T08:41:13.910Z,22.47
2019-02-12T08:43:49.344Z,25.13
2019-02-12T08:46:36.739Z,21.93
2019-02-12T08:49:11.028Z,20.73
2019-02-12T08:51:45.122Z,26.33
2019-02-12T08:54:30.505Z,22.47
2019-02-12T09:00:15.916Z,32.27
2019-02-12T09:02:48.975Z,24.03
2019-02-12T09:05:28.511Z,27.47
2019-02-12T09:08:11.921Z,32.48
2019-02-12T09:11:00.085Z,33.17
2019-02-12T09:13:42.698Z,41.40
2019-02-12T09:16:21.978Z,33.00
2019-02-12T09:18:53.173Z,46.65
2019-02-12T09:21:27.087Z,32.87
2019-02-12T09:24:00.660Z,41.15
2019-02-12T09:26:45.479Z,39.13
2019-02-12T09:29:19.939Z,39.77
2019-02-12T09:31:55.722Z,31.70
2019-02-12T09:34:28.021Z,33.20
2019-02-12T09:37:03.827Z,41.30
2019-02-12T09:39:34.271Z,28.47
2019-02-12T09:42:04.520Z,29.63
2019-02-12T09:44:46.712Z,27.43
2019-02-12T09:47:25.607Z,20.10
2019-02-12T09:50:02.326Z,36.93
2019-02-12T09:52:48.414Z,25.00
2019-02-12T09:55:44.040Z,37.00
2019-02-12T09:58:31.689Z,24.17
2019-02-12T10:01:10.107Z,18.73
2019-02-12T10:04:01.036Z,23.77
2019-02-12T10:06:32.829Z,27.00
2019-02-12T10:09:40.403Z,51.80
2019-02-12T10:12:04.846Z,30.05
2019-02-12T10:14:55.573Z,36.00
2019-02-12T10:17:25.730Z,34.23
2019-02-12T10:19:56.814Z,30.23
2019-02-12T10:22:29.647Z,29.85
2019-02-12T10:25:00.032Z,26.97
2019-02-12T10:27:51.211Z,23.43
2019-02-12T10:30:43.770Z,34.13
2019-02-12T10:33:16.110Z,39.17
2019-02-12T10:35:46.544Z,27.60
2019-02-12T10:38:17.877Z,33.05
2019-02-12T10:40:48.222Z,33.17
2019-02-12T10:43:17.996Z,40.47
2019-02-12T10:45:48.163Z,32.40
2019-02-12T10:48:25.928Z,31.13
2019-02-12T10:50:57.639Z,46.23
2019-02-12T10:53:31.986Z,32.27
2019-02-12T10:56:08.513Z,30.43
2019-02-12T10:58:41.174Z,30.97
2019-02-12T11:01:13.439Z,24.27
2019-02-12T11:03:48.158Z,41.20
2019-02-12T11:06:17.689Z,45.03
2019-02-12T11:08:51.199Z,25.60
2019-02-12T11:11:24.985Z,29.70
2019-02-12T11:13:56.599Z,27.27
2019-02-12T11:16:32.167Z,31.23
2019-02-12T11:19:00.941Z,35.30
2019-02-12T11:21:29.730Z,28.53
2019-02-12T11:24:02.094Z,37.03
2019-02-12T11:26:37.365Z,31.60
2019-02-12T11:29:09.278Z,32.20
2019-02-12T11:31:39.116Z,27.97
2019-02-12T11:34:07.485Z,28.00
2019-02-12T11:36:36.085Z,37.78
2019-02-12T11:39:15.379Z,26.97
2019-02-12T11:41:52.603Z,26.50
2019-02-12T11:44:25.106Z,25.83
2019-02-12T11:46:53.800Z,34.63
2019-02-12T11:49:22.260Z,33.28
2019-02-12T11:51:59.923Z,27.20
2019-02-12T11:54:29.931Z,30.77
2019-02-12T11:56:58.780Z,36.43
2019-02-12T11:59:32.497Z,29.13
2019-02-12T12:02:09.972Z,31.23
2019-02-12T12:04:40.252Z,30.60
2019-02-12T12:07:08.767Z,41.20
2019-02-12T12:09:41.541Z,31.37
2019-02-12T12:12:10.645Z,29.70
2019-02-12T12:14:39.038Z,33.60
2019-02-12T12:17:10.387Z,31.13
2019-02-12T12:19:40.329Z,25.70
2019-02-12T12:22:09.091Z,25.00
2019-02-12T12:24:40.385Z,23.50
2019-02-12T12:27:12.619Z,41.00
2019-02-12T12:29:43.486Z,26.37
2019-02-12T12:32:12.333Z,29.93
2019-02-12T12:34:41.550Z,34.43
2019-02-12T12:37:11.304Z,29.03
2019-02-12T12:39:41.152Z,31.50
2019-02-12T12:42:09.763Z,24.73
2019-02-12T12:44:39.863Z,25.20
2019-02-12T12:47:09.847Z,25.10
2019-02-12T12:49:38.640Z,20.08
2019-02-12T12:52:10.739Z,23.20
2019-02-12T12:54:41.779Z,27.17
2019-02-12T12:57:10.258Z,24.87
2019-02-12T12:59:41.533Z,32.37
2019-02-12T13:02:12.705Z,26.77
2019-02-12T13:04:43.918Z,24.53
2019-02-12T13:07:12.437Z,40.27
2019-02-12T13:09:40.962Z,34.23
2019-02-12T13:12:12.129Z,28.63
2019-02-12T13:14:44.830Z,21.33
2019-02-12T13:17:14.504Z,27.87
2019-02-12T13:19:42.877Z,22.00
2019-02-12T13:22:11.740Z,24.53
2019-02-12T13:24:41.823Z,21.20
2019-02-12T13:27:16.820Z,20.57
2019-02-12T13:29:45.477Z,22.10
2019-02-12T13:32:15.267Z,26.30
2019-02-12T13:34:43.828Z,18.40
2019-02-12T13:37:13.046Z,24.53
2019-02-12T13:39:41.661Z,19.52
2019-02-12T13:42:09.860Z,23.90
2019-02-12T13:44:39.641Z,24.13
2019-02-12T13:47:07.951Z,21.93
2019-02-12T13:49:36.381Z,23.80
2019-02-12T13:52:04.604Z,23.45
2019-02-12T13:54:32.833Z,20.90
2019-02-12T13:57:03.915Z,27.70
2019-02-12T13:59:33.574Z,22.77
2019-02-12T14:02:03.513Z,21.55
2019-02-12T14:04:33.194Z,21.53
2019-02-12T14:07:01.482Z,13.57
2019-02-12T14:09:29.705Z,13.53
2019-02-12T14:11:57.843Z,13.37
2019-02-12T14:14:26.344Z,13.80
2019-02-12T14:16:57.232Z,19.93
2019-02-12T14:19:25.413Z,15.27
2019-02-12T14:21:53.538Z,15.50
2019-02-12T14:24:24.104Z,13.72
2019-02-12T14:26:52.777Z,13.63
2019-02-12T14:29:22.531Z,9.98
2019-02-12T14:31:54.854Z,15.17
2019-02-12T14:34:27.530Z,16.85
2019-02-12T14:36:57.211Z,15.63
2019-02-12T14:39:26.364Z,16.10
2019-02-12T14:41:56.081Z,14.30
2019-02-12T14:44:26.368Z,15.17
2019-02-12T14:46:54.995Z,18.33
2019-02-12T14:49:24.258Z,15.50
2019-02-12T14:51:52.762Z,21.23
2019-02-12T14:54:21.367Z,22.80
2019-02-12T14:56:52.929Z,19.17
2019-02-12T14:59:23.399Z,17.33
2019-02-12T15:01:51.660Z,22.37
2019-02-12T15:04:20.073Z,23.10
2019-02-12T15:06:49.351Z,17.60
2019-02-12T15:09:17.882Z,22.23
2019-02-12T15:11:47.288Z,19.63
2019-02-12T15:14:15.828Z,23.30
2019-02-12T15:16:44.549Z,20.97
2019-02-12T15:19:15.352Z,17.13
2019-02-12T15:21:43.900Z,22.23
2019-02-12T15:24:12.564Z,26.23
2019-02-12T15:26:43.596Z,23.27
2019-02-12T15:29:13.399Z,19.23
2019-02-12T15:31:41.818Z,21.33
2019-02-12T15:34:13.899Z,17.80
2019-02-12T15:36:42.410Z,21.67
2019-02-12T15:39:10.899Z,21.40
2019-02-12T15:41:39.435Z,22.13
2019-02-12T15:44:09.315Z,21.87
2019-02-12T15:46:40.441Z,21.33
2019-02-12T15:49:12.113Z,21.87
2019-02-12T15:51:40.481Z,22.33
2019-02-12T15:54:08.954Z,22.00
2019-02-12T15:56:39.399Z,24.33
2019-02-12T15:59:07.950Z,17.70
2019-02-12T16:01:36.353Z,19.95
2019-02-12T16:04:07.905Z,24.63
2019-02-12T16:06:36.487Z,18.40
2019-02-12T16:09:08.656Z,28.50
2019-02-12T16:11:40.015Z,23.73
2019-02-12T16:14:10.053Z,25.20
2019-02-12T16:16:38.686Z,21.43
2019-02-12T16:19:07.865Z,23.27
2019-02-12T16:21:38.816Z,18.87
2019-02-12T16:24:10.404Z,22.90
2019-02-12T16:26:40.195Z,22.27
2019-02-12T16:29:09.102Z,23.10
2019-02-12T16:31:37.669Z,26.77
2019-02-12T16:34:06.198Z,23.60
2019-02-12T16:36:35.599Z,24.00
2019-02-12T16:39:05.974Z,23.50
2019-02-12T16:41:38.678Z,24.87
2019-02-12T16:44:07.215Z,20.47
2019-02-12T16:46:35.774Z,21.67
2019-02-12T16:49:08.409Z,23.47
2019-02-12T16:51:37.863Z,23.57
2019-02-12T16:54:06.457Z,22.00
2019-02-12T16:56:34.855Z,23.60
2019-02-12T16:59:04.202Z,28.73
2019-02-12T17:01:33.773Z,21.23
2019-02-12T17:04:03.671Z,25.63
2019-02-12T17:06:32.895Z,29.13
2019-02-12T17:09:04.249Z,28.97
2019-02-12T17:11:33.989Z,34.20
2019-02-12T17:14:02.578Z,29.10
2019-02-12T17:16:31.257Z,34.10
2019-02-12T17:18:59.702Z,26.47
2019-02-12T17:21:30.155Z,22.77
2019-02-12T17:23:59.607Z,25.95
2019-02-12T17:26:28.033Z,28.37
2019-02-12T17:29:00.292Z,22.07
2019-02-12T17:31:31.673Z,28.30
2019-02-12T17:34:00.083Z,23.18
2019-02-12T17:36:31.036Z,27.67
2019-02-12T17:38:59.794Z,30.53
2019-02-12T17:41:28.171Z,28.50
2019-02-12T17:43:59.506Z,30.80
2019-02-12T17:46:29.357Z,26.97
2019-02-12T17:49:03.151Z,42.47
2019-02-12T17:51:31.808Z,30.70
2019-02-12T17:54:01.915Z,28.97
2019-02-12T17:56:30.400Z,30.23
2019-02-12T17:58:58.959Z,33.27
2019-02-12T18:01:27.752Z,32.60
2019-02-12T18:03:56.538Z,26.40
2019-02-12T18:06:27.411Z,32.50
2019-02-12T18:08:56.545Z,26.60
2019-02-12T18:11:24.788Z,30.07
2019-02-12T18:13:52.995Z,27.27
2019-02-12T18:16:21.208Z,30.67
2019-02-12T18:18:49.412Z,28.55
2019-02-12T18:21:17.660Z,30.03
2019-02-12T18:23:45.807Z,24.50
2019-02-12T18:26:13.977Z,30.13
2019-02-12T18:28:45.634Z,36.03
2019-02-12T18:31:13.751Z,28.30
2019-02-12T18:33:42.049Z,30.00
2019-02-12T18:36:14.861Z,26.17
2019-02-12T18:38:43.029Z,26.17
2019-02-12T18:41:11.421Z,27.13
2019-02-12T18:43:41.114Z,28.03
2019-02-12T18:46:12.098Z,37.55
2019-02-12T18:48:40.642Z,33.53
2019-02-12T18:51:09.015Z,22.73
2019-02-12T18:53:38.833Z,25.17
2019-02-12T18:56:07.438Z,27.03
2019-02-12T18:58:36.000Z,26.83
2019-02-12T19:01:07.551Z,31.50
2019-02-12T19:03:38.513Z,30.73
2019-02-12T19:06:06.995Z,27.70
2019-02-12T19:08:35.332Z,31.23
2019-02-12T19:11:06.641Z,25.53
2019-02-12T19:13:35.152Z,31.62
2019-02-12T19:16:03.559Z,29.93
2019-02-12T19:18:38.431Z,27.07
2019-02-12T19:21:07.476Z,27.87
2019-02-12T19:23:37.128Z,29.17
2019-02-12T19:26:07.970Z,30.37
2019-02-12T19:28:38.036Z,27.47
2019-02-12T19:31:11.814Z,27.67
2019-02-12T19:33:42.855Z,28.27
2019-02-12T19:36:14.715Z,25.20
2019-02-12T19:38:44.193Z,23.87
2019-02-12T19:41:12.635Z,27.60
2019-02-12T19:43:41.378Z,25.65
2019-02-12T19:46:10.069Z,26.57
2019-02-12T19:48:42.284Z,25.60
2019-02-12T19:51:46.897Z,26.07
2019-02-12T19:54:18.296Z,28.98
2019-02-12T19:56:47.744Z,25.63
2019-02-12T19:59:16.200Z,23.18
2019-02-12T20:01:44.696Z,23.85
2019-02-12T20:04:15.876Z,26.73
2019-02-12T20:06:48.911Z,26.50
2019-02-12T20:09:19.085Z,27.73
2019-02-12T20:11:47.622Z,29.72
2019-02-12T20:14:16.049Z,26.52
2019-02-12T20:16:46.632Z,28.13
2019-02-12T20:19:16.409Z,29.43
2019-02-12T20:21:45.104Z,26.97
2019-02-12T20:24:13.803Z,26.83
2019-02-12T20:26:44.295Z,29.42
2019-02-12T20:29:12.897Z,27.23
2019-02-12T20:34:29.748Z,26.93
2019-02-12T20:36:59.321Z,28.40
2019-02-12T20:39:31.331Z,30.57
2019-02-12T20:42:01.952Z,27.93
2019-02-12T20:44:30.092Z,27.80
2019-02-12T20:46:58.232Z,28.97
2019-02-12T20:49:26.448Z,27.73
2019-02-12T20:51:57.007Z,29.07
2019-02-12T20:54:28.195Z,28.87
2019-02-12T20:56:59.131Z,24.63
2019-02-12T20:59:27.299Z,34.23
2019-02-12T21:01:56.233Z,35.30
2019-02-12T21:04:27.220Z,28.77
2019-02-12T21:07:01.599Z,31.70
2019-02-12T21:09:26.762Z,24.67
2019-02-12T21:11:54.968Z,25.37
2019-02-12T21:14:24.451Z,28.77
2019-02-12T21:16:54.244Z,28.43
2019-02-12T21:19:27.375Z,26.70
2019-02-12T21:21:58.982Z,33.03
2019-02-12T21:24:27.212Z,28.35
2019-02-12T21:26:55.383Z,28.97
2019-02-12T21:29:25.359Z,30.13
2019-02-12T21:34:45.183Z,25.63
2019-02-12T21:37:16.271Z,24.63
2019-02-12T21:39:44.620Z,30.60
2019-02-12T21:42:13.077Z,25.67
2019-02-12T21:44:41.497Z,27.93
2019-02-12T21:47:13.229Z,29.93
2019-02-12T21:49:41.345Z,26.00
2019-02-12T21:52:09.580Z,26.80
2019-02-12T21:54:37.868Z,21.57
2019-02-12T21:57:06.009Z,29.23
2019-02-12T21:59:35.232Z,30.20
2019-02-12T22:02:03.365Z,29.67
2019-02-12T22:04:31.476Z,34.77
2019-02-12T22:06:59.715Z,26.10
2019-02-12T22:09:40.327Z,26.47
2019-02-12T22:12:08.300Z,29.03
2019-02-12T22:14:39.189Z,27.83
2019-02-12T22:17:06.618Z,30.33
2019-02-12T22:19:34.727Z,23.20
2019-02-12T22:22:02.906Z,32.10
2019-02-12T22:24:31.766Z,29.37
2019-02-12T22:26:59.961Z,26.33
2019-02-12T22:29:28.114Z,29.92
2019-02-12T22:32:00.598Z,25.70
2019-02-12T22:34:30.320Z,29.33
2019-02-12T22:36:58.464Z,22.97
2019-02-12T22:39:26.787Z,23.80
2019-02-12T22:41:54.972Z,23.43
2019-02-12T22:44:36.484Z,21.47
2019-02-12T22:47:04.676Z,25.17
2019-02-12T22:49:32.900Z,30.17
2019-02-12T22:52:01.107Z,29.03
2019-02-12T22:54:29.284Z,22.32
2019-02-12T22:56:57.410Z,27.07
2019-02-12T22:59:25.513Z,30.07
2019-02-12T23:01:55.172Z,30.90
2019-02-12T23:04:23.358Z,27.63
2019-02-12T23:06:51.461Z,27.77
2019-02-12T23:09:19.686Z,34.70
2019-02-12T23:11:47.887Z,32.53
2019-02-12T23:14:16.126Z,28.87
2019-02-12T23:16:44.400Z,28.40
2019-02-12T23:19:12.507Z,31.83
2019-02-12T23:21:42.469Z,27.77
2019-02-12T23:24:10.697Z,26.40
2019-02-12T23:26:39.433Z,26.10
2019-02-12T23:29:10.055Z,35.38
2019-02-12T23:31:38.239Z,28.20
2019-02-12T23:34:06.411Z,27.35
2019-02-12T23:36:39.095Z,30.83
2019-02-12T23:39:07.465Z,32.27
2019-02-12T23:41:42.552Z,29.00
2019-02-12T23:44:10.681Z,28.25
2019-02-12T23:46:38.944Z,32.03
2019-02-12T23:49:09.912Z,34.77
2019-02-12T23:51:38.032Z,25.90
2019-02-12T23:54:06.564Z,32.42
2019-02-12T23:56:34.688Z,31.97
2019-02-12T23:59:03.632Z,33.07
